地図

経路データ

SID SEASON NUMBER BASIN SUBBASIN NAME ISO_TIME NATURE LAT LON WMO_WIND WMO_PRES WMO_AGENCY TRACK_TYPE DIST2LAND LANDFALL IFLAG USA_AGENCY USA_ATCF_ID USA_LAT USA_LON USA_RECORD USA_STATUS USA_WIND USA_PRES USA_SSHS USA_R34_NE USA_R34_SE USA_R34_SW USA_R34_NW USA_R50_NE USA_R50_SE USA_R50_SW USA_R50_NW USA_R64_NE USA_R64_SE USA_R64_SW USA_R64_NW USA_POCI USA_ROCI USA_RMW USA_EYE TOKYO_LAT TOKYO_LON TOKYO_GRADE TOKYO_WIND TOKYO_PRES TOKYO_R50_DIR TOKYO_R50_LONG TOKYO_R50_SHORT TOKYO_R30_DIR TOKYO_R30_LONG TOKYO_R30_SHORT TOKYO_LAND CMA_LAT CMA_LON CMA_CAT CMA_WIND CMA_PRES HKO_LAT HKO_LON HKO_CAT HKO_WIND HKO_PRES NEWDELHI_LAT NEWDELHI_LON NEWDELHI_GRADE NEWDELHI_WIND NEWDELHI_PRES NEWDELHI_CI NEWDELHI_DP NEWDELHI_POCI REUNION_LAT REUNION_LON REUNION_TYPE REUNION_WIND REUNION_PRES REUNION_TNUM REUNION_CI REUNION_RMW REUNION_R34_NE REUNION_R34_SE REUNION_R34_SW REUNION_R34_NW REUNION_R50_NE REUNION_R50_SE REUNION_R50_SW REUNION_R50_NW REUNION_R64_NE REUNION_R64_SE REUNION_R64_SW REUNION_R64_NW BOM_LAT BOM_LON BOM_TYPE BOM_WIND BOM_PRES BOM_TNUM BOM_CI BOM_RMW BOM_R34_NE BOM_R34_SE BOM_R34_SW BOM_R34_NW BOM_R50_NE BOM_R50_SE BOM_R50_SW BOM_R50_NW BOM_R64_NE BOM_R64_SE BOM_R64_SW BOM_R64_NW BOM_ROCI BOM_POCI BOM_EYE BOM_POS_METHOD BOM_PRES_METHOD NADI_LAT NADI_LON NADI_CAT NADI_WIND NADI_PRES WELLINGTON_LAT WELLINGTON_LON WELLINGTON_WIND WELLINGTON_PRES DS824_LAT DS824_LON DS824_STAGE DS824_WIND DS824_PRES TD9636_LAT TD9636_LON TD9636_STAGE TD9636_WIND TD9636_PRES TD9635_LAT TD9635_LON TD9635_WIND TD9635_PRES TD9635_ROCI NEUMANN_LAT NEUMANN_LON NEUMANN_CLASS NEUMANN_WIND NEUMANN_PRES MLC_LAT MLC_LON MLC_CLASS MLC_WIND MLC_PRES USA_GUST BOM_GUST BOM_GUST_PER REUNION_GUST REUNION_GUST_PER USA_SEAHGT USA_SEARAD_NE USA_SEARAD_SE USA_SEARAD_SW USA_SEARAD_NW STORM_SPEED STORM_DIR
1956073S21169 1956 26 SP MM NOT_NAMED 1956-03-12 17:00:00 NR -20.5000 169.000 main 281 265 __________O___ -1 -20.5000 169.000 1 20 9 218
1956073S21169 1956 26 SP MM NOT_NAMED 1956-03-12 18:00:00 TS -20.6128 168.908 main 265 212 O________OP___ jtwc_sh SH261956 -20.6000 168.900 20 -1 -20.6000 168.900 TC 20 -20.6255 168.916 1 19 9 215
1956073S21169 1956 26 SP MM NOT_NAMED 1956-03-12 21:00:00 TS -21.0065 168.621 main 212 161 P________PP___ SH261956 -21.0102 168.593 17 -1 -21.0102 168.593 TC 17 -21.0017 168.657 1 18 10 215
1956073S21169 1956 26 SP MM NOT_NAMED 1956-03-13 00:00:00 TS -21.3908 168.330 main 161 117 O________OP___ jtwc_sh SH261956 -21.4000 168.300 15 -1 -21.4000 168.300 TC 15 -21.3771 168.374 1 17 9 216
1956073S21169 1956 26 SP MM NOT_NAMED 1956-03-13 03:00:00 TS -21.7553 168.031 main 112 85 P________PP___ SH261956 -21.7573 168.022 15 -1 -21.7573 168.022 TC 15 -21.7514 168.049 1 15 9 219
1956073S21169 1956 26 SP MM NOT_NAMED 1956-03-13 05:00:00 TS -21.9906 167.811 main 85 72 P________PO___ SH261956 -21.9858 167.817 15 -1 -21.9858 167.817 TC 15 -22.0000 167.800 1 15 10 222
1956073S21169 1956 26 SP MM NOT_NAMED 1956-03-13 06:00:00 TS -22.1080 167.688 main 72 32 O________OP___ jtwc_sh SH261956 -22.1000 167.700 15 -1 -22.1000 167.700 TC 15 -22.1239 167.664 1 15 11 228
1956073S21169 1956 26 SP MM NOT_NAMED 1956-03-13 09:00:00 TS -22.4678 167.248 main 30 23 P________PP___ SH261956 -22.4577 167.258 15 -1 -22.4577 167.258 TC 15 -22.4880 167.229 1 15 11 230
1956073S21169 1956 26 SP MM NOT_NAMED 1956-03-13 12:00:00 TS -22.8094 166.797 main 44 44 O________OP___ jtwc_sh SH261956 -22.8000 166.800 15 -1 -22.8000 166.800 TC 15 -22.8283 166.791 1 15 10 230
1956073S21169 1956 26 SP MM NOT_NAMED 1956-03-13 15:00:00 TS -23.1297 166.395 main 84 84 P________PP___ SH261956 -23.1300 166.390 15 -1 -23.1300 166.390 TC 15 -23.1290 166.404 1 15 9 228
1956073S21169 1956 26 SP MM NOT_NAMED 1956-03-13 17:00:00 TS -23.3132 166.185 main 112 112 P________PO___ SH261956 -23.3198 166.177 15 -1 -23.3198 166.177 TC 15 -23.3000 166.200 1 15 7 225
1956073S21169 1956 26 SP MM NOT_NAMED 1956-03-13 18:00:00 TS -23.3902 166.112 main 126 126 O________OP___ jtwc_sh SH261956 -23.4000 166.100 15 -1 -23.4000 166.100 TC 15 -23.3707 166.136 1 15 4 213
1956073S21169 1956 26 SP MM NOT_NAMED 1956-03-13 21:00:00 TS -23.5628 166.009 main 150 150 P________PP___ SH261956 -23.5724 166.005 17 -1 -23.5724 166.005 TC 17 -23.5436 166.017 1 18 3 201
1956073S21169 1956 26 SP MM NOT_NAMED 1956-03-14 00:00:00 TS -23.6932 165.990 main 161 161 O________OP___ jtwc_sh SH261956 -23.7000 166.000 20 -1 -23.7000 166.000 TC 20 -23.6796 165.969 1 20 3 189
1956073S21169 1956 26 SP MM NOT_NAMED 1956-03-14 03:00:00 TS -23.8305 165.961 main 172 172 P________PP___ SH261956 -23.8425 165.972 22 -1 -23.8425 165.972 TC 22 -23.8066 165.938 1 23 3 194
1956073S21169 1956 26 SP MM NOT_NAMED 1956-03-14 05:00:00 TS -23.9295 165.922 main 186 186 P________PO___ SH261956 -23.9443 165.934 24 -1 -23.9443 165.934 TC 24 -23.9000 165.900 1 25 3 203
1956073S21169 1956 26 SP MM NOT_NAMED 1956-03-14 06:00:00 TS -23.9887 165.887 main 196 196 O________OP___ jtwc_sh SH261956 -24.0000 165.900 25 -1 -24.0000 165.900 TC 25 -23.9661 165.861 1 26 5 214
1956073S21169 1956 26 SP MM NOT_NAMED 1956-03-14 09:00:00 TS -24.1926 165.724 main 224 224 P________PP___ SH261956 -24.2000 165.723 32 -1 -24.2000 165.723 TC 32 -24.1778 165.726 1 31 5 219
1956073S21169 1956 26 SP MM NOT_NAMED 1956-03-14 12:00:00 TS -24.3977 165.519 main 252 252 O________OP___ jtwc_sh SH261956 -24.4000 165.500 40 0 -24.4000 165.500 TC 40 -24.3930 165.558 1 36 5 224
1956073S21169 1956 26 SP MM NOT_NAMED 1956-03-14 15:00:00 TS -24.5732 165.319 main 280 280 P________PP___ SH261956 -24.5650 165.300 42 0 -24.5650 165.300 TC 42 -24.5898 165.356 1 41 5 229
1956073S21169 1956 26 SP MM NOT_NAMED 1956-03-14 17:00:00 TS -24.6722 165.178 main 294 294 P________PO___ SH261956 -24.6583 165.167 44 0 -24.6583 165.167 TC 44 -24.7000 165.200 2 45 5 233
1956073S21169 1956 26 SP MM NOT_NAMED 1956-03-14 18:00:00 TS -24.7130 165.111 main 299 299 O________OP___ jtwc_sh SH261956 -24.7000 165.100 45 0 -24.7000 165.100 TC 45 -24.7390 165.134 2 43 4 237
1956073S21169 1956 26 SP MM NOT_NAMED 1956-03-14 21:00:00 TS -24.8190 164.930 main 318 318 P________PP___ SH261956 -24.8148 164.937 40 0 -24.8148 164.937 TC 40 -24.8274 164.915 2 40 4 242
1956073S21169 1956 26 SP MM NOT_NAMED 1956-03-14 23:00:00 TS -24.8525 164.817 999 bom main 333 323 P_____O__PP___ SH261956 -24.8748 164.795 36 0 -24.6000 165.300 999 -24.8748 164.795 TC 36 -24.8708 164.741 2 37 3 263
1956073S21169 1956 26 SP MM NOT_NAMED 1956-03-15 00:00:00 TS -24.8349 164.783 main 323 323 O_____P__OP___ jtwc_sh SH261956 -24.9000 164.700 35 0 -24.5805 165.234 -24.9000 164.700 TC 35 -24.8904 164.643 2 36 5 271
1956073S21169 1956 26 SP MM NOT_NAMED 1956-03-15 03:00:00 TS -24.8480 164.459 main 339 339 P_____P__PP___ SH261956 -24.9424 164.310 32 -1 -24.5282 165.025 -24.9424 164.310 TC 32 -24.9506 164.292 2 32 6 267
1956073S21169 1956 26 SP MM NOT_NAMED 1956-03-15 05:00:00 TS -24.8597 164.200 main 366 366 P_____P__PO___ SH261956 -24.9744 163.980 30 -1 -24.5044 164.864 -24.9744 163.980 TC 30 -25.0000 164.000 1 30 8 265
1956073S21169 1956 26 SP MM NOT_NAMED 1956-03-15 06:00:00 TS -24.8829 164.038 main 379 379 O_____P__OP___ jtwc_sh SH261956 -25.0000 163.800 30 -1 -24.4978 164.774 -25.0000 163.800 TC 30 -25.0290 163.834 1 29 9 258
1956073S21169 1956 26 SP MM NOT_NAMED 1956-03-15 09:00:00 TS -24.9886 163.521 main 418 418 P_____P__PP___ SH261956 -25.1423 163.238 27 -1 -24.5056 164.449 -25.1423 163.238 TC 27 -25.1242 163.259 1 28 10 257
1956073S21169 1956 26 SP MM NOT_NAMED 1956-03-15 12:00:00 TS -25.1147 162.936 main 461 461 O_____P__OP___ jtwc_sh SH261956 -25.3000 162.600 25 -1 -24.5676 164.019 -25.3000 162.600 TC 25 -25.2390 162.598 1 27 11 258
1956073S21169 1956 26 SP MM NOT_NAMED 1956-03-15 15:00:00 TS -25.2341 162.296 main 500 500 P_____P__PP___ SH261956 -25.3923 161.922 25 -1 -24.6994 163.451 -25.3923 161.922 TC 25 -25.3829 161.886 1 25 12 258
1956073S21169 1956 26 SP MM NOT_NAMED 1956-03-15 17:00:00 TS -25.3284 161.838 main 538 538 P_____P__PO___ SH261956 -25.4577 161.444 25 -1 -24.8333 162.979 -25.4577 161.444 TC 25 -25.5000 161.400 1 25 13 257
1956073S21169 1956 26 SP MM NOT_NAMED 1956-03-15 18:00:00 TS -25.3809 161.597 main 559 559 O_____P__OP___ jtwc_sh SH261956 -25.5000 161.200 25 -1 -24.9156 162.712 -25.5000 161.200 TC 25 -25.5511 161.143 1 24 14 255
1956073S21169 1956 26 SP MM NOT_NAMED 1956-03-15 21:00:00 TS -25.5671 160.835 main 628 628 P_____P__PP___ SH261956 -25.6549 160.450 22 -1 -25.2300 161.765 -25.6549 160.450 TC 22 -25.7255 160.343 1 23 15 254
1956073S21169 1956 26 SP MM NOT_NAMED 1956-03-15 23:00:00 TS -25.7270 160.300 999 bom main 671 671 P_____O__PP___ SH261956 -25.8052 159.947 20 -1 -25.5000 161.000 999 -25.8052 159.947 TC 20 -25.8678 159.816 1 22 15 251
1956073S21169 1956 26 SP MM NOT_NAMED 1956-03-16 00:00:00 TS -25.8206 160.028 main 668 586 O_____P__OP___ jtwc_sh SH261956 -25.9000 159.700 20 -1 -25.6537 160.576 999 -25.9000 159.700 TC 20 -25.9494 159.562 1 22 18 246
1956073S21169 1956 26 SP EA NOT_NAMED 1956-03-16 03:00:00 TS -26.2221 159.069 main 586 528 P_____P__PP___ SH261956 -26.2478 158.926 20 -1 -26.1585 159.265 999 -26.2478 158.926 TC 20 -26.2474 158.872 1 20 18 243
1956073S21169 1956 26 SP EA NOT_NAMED 1956-03-16 05:00:00 TS -26.5214 158.512 999 bom main 519 492 P_____O__PO___ SH261956 -26.5392 158.480 20 -1 -26.5000 158.500 999 -26.5392 158.480 TC 20 -26.5000 158.500 1 20 17 237
1956073S21169 1956 26 SP EA NOT_NAMED 1956-03-16 06:00:00 TS -26.6776 158.287 main 492 437 O_____P__OP___ jtwc_sh SH261956 -26.7000 158.300 20 -1 -26.6566 158.194 -26.7000 158.300 TC 20 -26.6484 158.349 1 20 13 222
1956073S21169 1956 26 SP EA NOT_NAMED 1956-03-16 09:00:00 TS -27.1796 157.857 main 437 396 P_____P__PP___ SH261956 -27.2195 157.952 20 -1 -27.1125 157.518 -27.2195 157.952 TC 20 -27.1670 158.008 1 20 12 209
1956073S21169 1956 26 SP EA NOT_NAMED 1956-03-16 12:00:00 TS -27.7296 157.638 main 396 381 O_____P__OP___ jtwc_sh SH261956 -27.8000 157.800 20 -1 -27.5571 157.145 -27.8000 157.800 TC 20 -27.7614 157.807 1 20 12 194
1956073S21169 1956 26 SP EA NOT_NAMED 1956-03-16 15:00:00 TS -28.2968 157.539 bom main 381 380 P_____O__PP___ SH261956 -28.3999 157.719 20 -1 -28.0000 157.000 -28.3999 157.719 TC 20 -28.3874 157.716 1 20 11 186
1956073S21169 1956 26 SP EA NOT_NAMED 1956-03-16 17:00:00 TS -28.6760 157.526 main 379 379 P_____P__PO___ SH261956 -28.8031 157.706 20 -1 -28.2977 156.992 -28.8031 157.706 TC 20 -28.8000 157.700 1 20 12 0
1956073S21169 1956 26 SP EA NOT_NAMED 1956-03-16 18:00:00 TS -28.8789 157.550 main 379 379 O_____P__OP___ jtwc_sh SH261956 -29.0000 157.700 20 -1 -28.4474 157.007 -29.0000 157.700 TC 20 -28.9604 157.657 1 21 11 181
1956073S21169 1956 26 SP EA NOT_NAMED 1956-03-16 21:00:00 TS -29.4255 157.521 main 382 382 P_____P__PP___ SH261956 -29.5574 157.598 27 -1 -28.8984 157.108 -29.5574 157.598 TC 27 -29.4253 157.574 1 26 11 0
1956073S21169 1956 26 SP EA NOT_NAMED 1956-03-16 23:00:00 TS -29.8110 157.548 998 bom main 390 390 P_____O__PP___ SH261956 -29.9192 157.577 32 -1 -29.2000 157.200 998 4 -29.9192 157.577 TC 32 -29.7475 157.576 1 30 12 174
1956073S21169 1956 26 SP EA NOT_NAMED 1956-03-17 00:00:00 TS -30.0400 157.600 main 405 405 O________OP___ jtwc_sh SH261956 -30.1000 157.600 35 0 -30.1000 157.600 TC 35 -29.9200 157.599 1 31 12 164
1956073S21169 1956 26 SP EA NOT_NAMED 1956-03-17 03:00:00 TS -30.5495 157.790 main 436 436 P________PP___ SH261956 -30.5672 157.797 37 0 -30.5672 157.797 TC 37 -30.5142 157.775 1 36 12 158
1956073S21169 1956 26 SP EA NOT_NAMED 1956-03-17 05:00:00 TS -30.9691 158.029 main 466 466 P________PO___ SH261956 -30.9536 158.043 39 0 -30.9536 158.043 TC 39 -31.0000 158.000 2 40 15 154
1956073S21169 1956 26 SP EA NOT_NAMED 1956-03-17 06:00:00 TS -31.2347 158.182 main 484 484 O________OP___ jtwc_sh SH261956 -31.2000 158.200 40 0 -31.2000 158.200 TC 40 -31.3041 158.145 2 39 21 154
1956073S21169 1956 26 SP EA NOT_NAMED 1956-03-17 09:00:00 TS -32.2578 158.748 main 545 545 P________PP___ SH261956 -32.2173 158.760 37 0 -32.2173 158.760 TC 37 -32.3387 158.724 2 38 25 153
1956073S21169 1956 26 SP EA NOT_NAMED 1956-03-17 12:00:00 TS -33.4245 159.494 main 651 651 O________OP___ jtwc_sh SH261956 -33.4000 159.500 35 0 -33.4000 159.500 TC 35 -33.4736 159.483 2 37 27 150
1956073S21169 1956 26 SP MM NOT_NAMED 1956-03-17 15:00:00 TS -34.5641 160.359 main 770 770 P________PP___ SH261956 -34.5449 160.355 35 0 -34.5449 160.355 TC 35 -34.6025 160.368 2 35 27 146
1956073S21169 1956 26 SP MM NOT_NAMED 1956-03-17 17:00:00 TS -35.2783 160.987 main 847 847 P________PO___ SH261956 -35.2675 160.981 35 0 -35.2675 160.981 TC 35 -35.3000 161.000 2 35 26 144
1956073S21169 1956 26 SP MM NOT_NAMED 1956-03-17 18:00:00 TS -35.6006 161.293 main 884 884 O________OP___ jtwc_sh SH261956 -35.6000 161.300 35 0 -35.6000 161.300 TC 35 -35.6017 161.280 2 34 23 140
1956073S21169 1956 26 SP MM NOT_NAMED 1956-03-17 21:00:00 TS -36.4573 162.202 main 964 876 P________PP___ SH261956 -36.4663 162.223 32 -1 -36.4663 162.223 TC 32 -36.4395 162.161 2 33 22 137
1956073S21169 1956 26 SP MM NOT_NAMED 1956-03-18 00:00:00 TS -37.1970 163.176 main 869 759 O________OP___ jtwc_sh SH261956 -37.2000 163.200 30 -1 -37.2000 163.200 TC 30 -37.1910 163.128 2 32 21 131
1956073S21169 1956 26 SP MM NOT_NAMED 1956-03-18 03:00:00 TS -37.8769 164.226 main 754 679 P________PP___ SH261956 -37.8782 164.236 30 -1 -37.8782 164.236 TC 30 -37.8742 164.205 2 30 22 127
1956073S21169 1956 26 SP MM NOT_NAMED 1956-03-18 05:00:00 TS -38.2972 164.995 main 671 638 P________PO___ SH261956 -38.2958 164.993 30 -1 -38.2958 164.993 TC 30 -38.3000 165.000 1 30 22 124
1956073S21169 1956 26 SP MM NOT_NAMED 1956-03-18 06:00:00 TS -38.5023 165.409 main 630 500 O________OP___ jtwc_sh SH261956 -38.5000 165.400 30 -1 -38.5000 165.400 TC 30 -38.5057 165.423 1 30 24 120
1956073S21169 1956 26 SP MM NOT_NAMED 1956-03-18 09:00:00 TS -39.1014 166.764 main 492 360 P________PP___ SH261956 -39.1068 166.742 30 -1 -39.1068 166.742 TC 30 -39.0961 166.787 1 30 25 118
1956073S21169 1956 26 SP MM NOT_NAMED 1956-03-18 12:00:00 TS -39.6695 168.241 main 355 221 O________OP___ jtwc_sh SH261956 -39.7000 168.200 30 -1 -39.7000 168.200 TC 30 -39.6492 168.268 1 30 26 114
1956073S21169 1956 26 SP MM NOT_NAMED 1956-03-18 15:00:00 NR -40.1692 169.830 main 208 117 __________P___ SH261956 -1 TC -40.1692 169.830 1 30 26 112
1956073S21169 1956 26 SP MM NOT_NAMED 1956-03-18 17:00:00 NR -40.5000 170.900 main 110 __________O___ SH261956 -1 TC -40.5000 170.900 1 30 26 112

デジタル台風データ・検索

IBTrACS Databaseについて

本データベースは、米国NOAAが公開する1842年以降の世界の熱帯低気圧のベストトラックデータアーカイブInternational Best Track Archive for Climate Stewardship (IBTrACS)を、ウェブで閲覧しやすい形式に変換したものです。

最終更新日:2021-11-26